createdAt,value
2022-08-18T00:02:13.624Z,34.80
2022-08-18T00:04:48.450Z,34.80
2022-08-18T00:07:31.398Z,34.80
2022-08-18T00:10:01.096Z,34.80
2022-08-18T00:12:42.495Z,34.90
2022-08-18T00:15:17.874Z,34.90
2022-08-18T00:17:47.596Z,35.10
2022-08-18T00:20:25.329Z,34.90
2022-08-18T00:22:54.298Z,35.00
2022-08-18T00:25:23.483Z,35.00
2022-08-18T00:27:52.167Z,35.20
2022-08-18T00:30:23.226Z,35.20
2022-08-18T00:32:57.606Z,35.10
2022-08-18T00:35:34.987Z,34.70
2022-08-18T00:38:06.583Z,34.80
2022-08-18T00:40:43.500Z,34.70
2022-08-18T00:43:21.785Z,34.60
2022-08-18T00:45:50.731Z,34.60
2022-08-18T00:48:19.276Z,34.30
2022-08-18T00:51:01.333Z,34.20
2022-08-18T00:53:48.713Z,34.10
2022-08-18T00:56:23.779Z,33.90
2022-08-18T00:59:08.480Z,34.00
2022-08-18T01:01:39.010Z,33.80
2022-08-18T01:04:26.777Z,33.80
2022-08-18T01:07:07.697Z,33.60
2022-08-18T01:09:36.798Z,33.50
2022-08-18T01:12:44.086Z,33.40
2022-08-18T01:14:55.856Z,33.30
2022-08-18T01:17:44.964Z,33.10
2022-08-18T01:20:37.038Z,33.20
2022-08-18T01:23:16.572Z,33.30
2022-08-18T01:26:02.293Z,33.20
2022-08-18T01:28:40.052Z,33.10
2022-08-18T01:31:14.684Z,33.00
2022-08-18T01:33:45.578Z,32.90
2022-08-18T01:36:20.927Z,32.80
2022-08-18T01:38:52.924Z,32.80
2022-08-18T01:41:29.500Z,32.90
2022-08-18T01:44:04.209Z,33.00
2022-08-18T01:46:35.853Z,32.90
2022-08-18T01:49:06.273Z,32.80
2022-08-18T01:51:39.584Z,32.70
2022-08-18T01:54:11.437Z,32.70
2022-08-18T01:56:41.546Z,32.70
2022-08-18T01:59:15.697Z,32.80
2022-08-18T02:01:52.947Z,32.80
2022-08-18T02:04:41.589Z,32.90
2022-08-18T02:07:13.691Z,32.90
2022-08-18T02:09:44.230Z,32.90
2022-08-18T02:12:14.074Z,33.00
2022-08-18T02:14:43.137Z,33.00
2022-08-18T02:17:14.190Z,32.90
2022-08-18T02:19:46.475Z,32.70
2022-08-18T02:22:18.768Z,32.80
2022-08-18T02:24:48.512Z,32.70
2022-08-18T02:27:17.980Z,32.70
2022-08-18T02:29:46.674Z,32.50
2022-08-18T02:32:15.273Z,32.50
2022-08-18T02:34:43.948Z,32.30
2022-08-18T02:37:15.280Z,32.00
2022-08-18T02:39:44.432Z,31.90
2022-08-18T02:42:15.506Z,31.90
2022-08-18T02:44:44.119Z,31.40
2022-08-18T02:47:15.217Z,31.30
2022-08-18T02:49:43.749Z,31.30
2022-08-18T02:52:12.290Z,31.40
2022-08-18T02:54:40.861Z,31.30
2022-08-18T02:57:12.161Z,31.30
2022-08-18T02:59:42.256Z,31.20
2022-08-18T03:02:15.923Z,31.20
2022-08-18T03:04:44.576Z,31.10
2022-08-18T03:07:13.104Z,31.10
2022-08-18T03:09:42.407Z,31.00
2022-08-18T03:12:11.869Z,31.00
2022-08-18T03:14:40.903Z,30.90
2022-08-18T03:17:10.617Z,30.90
2022-08-18T03:19:39.433Z,30.80
2022-08-18T03:22:27.763Z,30.60
2022-08-18T03:24:58.542Z,30.50
2022-08-18T03:27:27.561Z,30.50
2022-08-18T03:29:56.229Z,30.50
2022-08-18T03:32:27.294Z,30.40
2022-08-18T03:34:55.794Z,30.40
2022-08-18T03:37:24.296Z,30.40
2022-08-18T03:39:53.714Z,30.20
2022-08-18T03:42:22.280Z,30.20
2022-08-18T03:44:50.837Z,30.10
2022-08-18T03:47:20.110Z,30.10
2022-08-18T03:49:49.810Z,30.00
2022-08-18T03:52:18.342Z,29.90
2022-08-18T03:54:47.480Z,29.60
2022-08-18T03:57:15.924Z,29.50
2022-08-18T03:59:44.551Z,29.40
2022-08-18T04:02:13.563Z,29.30
2022-08-18T04:04:42.904Z,29.20
2022-08-18T04:07:15.262Z,29.10
2022-08-18T04:09:44.053Z,29.00
2022-08-18T04:12:17.286Z,29.00
2022-08-18T04:14:49.207Z,29.00
2022-08-18T04:17:25.776Z,29.00
2022-08-18T04:19:55.943Z,29.00
2022-08-18T04:22:25.764Z,29.00
2022-08-18T04:24:55.042Z,28.90
2022-08-18T04:27:24.036Z,28.80
2022-08-18T04:29:52.786Z,28.70
2022-08-18T04:32:21.221Z,28.70
2022-08-18T04:34:50.331Z,28.70
2022-08-18T04:37:19.819Z,28.70
2022-08-18T04:39:48.669Z,28.60
2022-08-18T04:42:17.618Z,28.60
2022-08-18T04:44:45.992Z,28.60
2022-08-18T04:47:14.428Z,28.60
2022-08-18T04:49:44.533Z,28.70
2022-08-18T04:52:40.821Z,28.70
2022-08-18T04:55:11.233Z,28.70
2022-08-18T04:57:40.097Z,28.60
2022-08-18T05:00:09.701Z,28.60
2022-08-18T05:02:38.089Z,28.60
2022-08-18T05:05:07.364Z,28.50
2022-08-18T05:07:35.735Z,28.60
2022-08-18T05:10:04.897Z,28.70
2022-08-18T05:12:33.305Z,28.60
2022-08-18T05:15:01.960Z,28.60
2022-08-18T05:17:31.179Z,28.60
2022-08-18T05:20:02.034Z,28.60
2022-08-18T05:22:31.852Z,28.60
2022-08-18T05:25:00.982Z,28.50
2022-08-18T05:27:34.241Z,28.30
2022-08-18T05:30:03.752Z,28.30
2022-08-18T05:32:41.190Z,28.30
2022-08-18T05:35:23.374Z,28.30
2022-08-18T05:38:29.340Z,28.30
2022-08-18T05:41:13.721Z,28.20
2022-08-18T05:43:51.857Z,28.20
2022-08-18T05:46:31.775Z,28.10
2022-08-18T05:49:00.681Z,28.10
2022-08-18T05:51:43.356Z,28.10
2022-08-18T05:54:31.559Z,28.10
2022-08-18T05:57:06.208Z,28.10
2022-08-18T05:59:39.365Z,28.00
2022-08-18T06:02:12.426Z,28.00
2022-08-18T06:04:47.874Z,28.00
2022-08-18T06:07:38.885Z,27.90
2022-08-18T06:10:10.340Z,27.90
2022-08-18T06:12:47.184Z,27.90
2022-08-18T06:15:51.452Z,27.90
2022-08-18T06:18:51.796Z,28.00
2022-08-18T06:21:39.805Z,28.00
2022-08-18T06:24:19.739Z,27.80
2022-08-18T06:27:15.407Z,27.80
2022-08-18T06:30:05.829Z,27.60
2022-08-18T06:32:37.495Z,27.60
2022-08-18T06:35:34.044Z,27.60
2022-08-18T06:38:32.615Z,27.60
2022-08-18T06:41:41.541Z,27.60
2022-08-18T06:44:22.987Z,27.40
2022-08-18T06:47:10.450Z,27.20
2022-08-18T06:49:43.056Z,27.30
2022-08-18T06:52:31.479Z,27.30
2022-08-18T06:55:12.292Z,27.20
2022-08-18T06:57:58.614Z,27.20
2022-08-18T07:00:33.289Z,27.30
2022-08-18T07:03:36.086Z,27.30
2022-08-18T07:06:32.311Z,27.20
2022-08-18T07:09:23.379Z,26.80
2022-08-18T07:12:10.880Z,26.80
2022-08-18T07:14:52.040Z,26.80
2022-08-18T07:17:42.091Z,26.70
2022-08-18T07:20:26.481Z,26.60
2022-08-18T07:23:08.140Z,26.50
2022-08-18T07:25:43.350Z,26.40
2022-08-18T07:28:30.052Z,26.20
2022-08-18T07:31:25.644Z,26.20
2022-08-18T07:34:02.961Z,26.20
2022-08-18T07:36:36.496Z,26.10
2022-08-18T07:39:16.604Z,26.20
2022-08-18T07:41:51.645Z,26.20
2022-08-18T07:44:57.143Z,26.00
2022-08-18T07:47:49.550Z,25.90
2022-08-18T07:50:36.298Z,26.00
2022-08-18T07:53:29.769Z,26.00
2022-08-18T07:56:08.195Z,25.90
2022-08-18T07:59:16.069Z,26.00
2022-08-18T08:02:14.486Z,26.10
2022-08-18T08:04:42.840Z,26.10
2022-08-18T08:07:30.797Z,26.00
2022-08-18T08:10:22.273Z,26.00
2022-08-18T08:13:09.760Z,26.10
2022-08-18T08:15:53.691Z,25.90
2022-08-18T08:18:25.242Z,25.80
2022-08-18T08:20:58.381Z,25.90
2022-08-18T08:23:54.595Z,25.80
2022-08-18T08:26:32.168Z,25.70
2022-08-18T08:29:12.695Z,25.70
2022-08-18T08:32:12.716Z,25.70
2022-08-18T08:34:51.263Z,25.80
2022-08-18T08:37:54.130Z,25.80
2022-08-18T08:40:46.908Z,25.70
2022-08-18T08:43:23.504Z,25.70
2022-08-18T08:46:30.836Z,25.60
2022-08-18T08:49:09.767Z,25.40
2022-08-18T08:51:57.653Z,25.40
2022-08-18T08:54:45.221Z,25.50
2022-08-18T08:57:15.655Z,25.40
2022-08-18T08:59:49.848Z,25.40
2022-08-18T09:02:47.125Z,25.40
2022-08-18T09:05:26.823Z,25.50
2022-08-18T09:08:18.093Z,25.40
2022-08-18T09:11:11.997Z,25.20
2022-08-18T09:13:49.257Z,25.10
2022-08-18T09:16:49.243Z,25.00
2022-08-18T09:19:35.556Z,24.90
2022-08-18T09:22:31.995Z,24.80
2022-08-18T09:25:01.144Z,24.80
2022-08-18T09:31:08.582Z,24.50
2022-08-18T09:33:49.928Z,24.50
2022-08-18T09:36:26.028Z,24.50
2022-08-18T09:39:35.931Z,24.40
2022-08-18T09:42:48.565Z,24.30
2022-08-18T09:45:34.493Z,24.30
2022-08-18T09:48:25.105Z,24.30
2022-08-18T09:50:54.167Z,24.20
2022-08-18T09:53:39.835Z,24.20
2022-08-18T09:56:08.273Z,24.10
2022-08-18T09:59:10.854Z,24.00
2022-08-18T10:01:41.777Z,23.70
2022-08-18T10:04:16.264Z,23.50
2022-08-18T10:06:51.692Z,23.50
2022-08-18T10:09:36.254Z,23.40
2022-08-18T10:12:27.459Z,23.50
2022-08-18T10:15:33.069Z,23.40
2022-08-18T10:18:14.714Z,23.30
2022-08-18T10:21:05.010Z,23.40
2022-08-18T10:26:54.984Z,23.40
2022-08-18T10:29:26.847Z,23.40
2022-08-18T10:31:58.635Z,23.20
2022-08-18T10:34:52.067Z,23.20
2022-08-18T10:37:44.180Z,23.30
2022-08-18T10:40:15.509Z,23.30
2022-08-18T10:46:24.283Z,22.90
2022-08-18T10:49:17.395Z,22.90
2022-08-18T10:52:02.170Z,23.00
2022-08-18T10:54:59.718Z,23.10
2022-08-18T10:58:00.568Z,23.00
2022-08-18T11:00:39.283Z,23.10
2022-08-18T11:03:55.396Z,23.20
2022-08-18T11:06:26.964Z,23.40
2022-08-18T11:09:02.204Z,23.40
2022-08-18T11:11:52.575Z,23.30
2022-08-18T11:14:36.948Z,23.40
2022-08-18T11:17:17.574Z,23.30
2022-08-18T11:19:50.677Z,23.20
2022-08-18T11:22:33.076Z,23.10
2022-08-18T11:25:05.101Z,23.00
2022-08-18T11:27:48.497Z,23.10
2022-08-18T11:30:17.737Z,23.20
2022-08-18T11:32:55.261Z,23.20
2022-08-18T11:35:31.875Z,23.00
2022-08-18T11:38:02.913Z,22.90
2022-08-18T11:43:41.792Z,22.90
2022-08-18T11:46:39.696Z,23.10
2022-08-18T11:49:34.745Z,23.10
2022-08-18T11:52:32.746Z,23.10
2022-08-18T11:55:15.234Z,23.20
2022-08-18T11:57:59.696Z,23.10
2022-08-18T12:00:46.959Z,22.90
2022-08-18T12:03:21.365Z,23.00
2022-08-18T12:05:56.346Z,23.00
2022-08-18T12:08:56.572Z,23.00
2022-08-18T12:11:27.220Z,22.70
2022-08-18T12:14:32.423Z,22.80
2022-08-18T12:16:58.273Z,22.90
2022-08-18T12:19:34.361Z,22.90
2022-08-18T12:22:14.202Z,22.70
2022-08-18T12:24:42.917Z,22.60
2022-08-18T12:27:20.659Z,22.70
2022-08-18T12:29:54.967Z,22.80
2022-08-18T12:32:46.619Z,22.60
2022-08-18T12:35:21.736Z,22.60
2022-08-18T12:37:59.984Z,22.70
2022-08-18T12:40:32.968Z,22.70
2022-08-18T12:43:02.518Z,22.70
2022-08-18T12:45:31.957Z,22.60
2022-08-18T12:48:04.336Z,22.60
2022-08-18T12:50:37.593Z,22.40
2022-08-18T12:53:11.812Z,22.40
2022-08-18T12:55:45.673Z,22.50
2022-08-18T12:58:14.492Z,22.60
2022-08-18T13:00:43.597Z,22.50
2022-08-18T13:03:12.018Z,22.50
2022-08-18T13:05:40.436Z,22.40
2022-08-18T13:08:30.311Z,22.40
2022-08-18T13:11:15.089Z,22.40
2022-08-18T13:13:53.021Z,22.40
2022-08-18T13:16:39.222Z,22.40
2022-08-18T13:19:16.125Z,22.30
2022-08-18T13:21:44.800Z,22.20
2022-08-18T13:24:13.710Z,22.00
2022-08-18T13:26:47.983Z,22.00
2022-08-18T13:29:18.138Z,22.10
2022-08-18T13:31:55.566Z,22.10
2022-08-18T13:34:25.152Z,22.20
2022-08-18T13:36:54.002Z,22.20
2022-08-18T13:39:25.263Z,22.30
2022-08-18T13:42:26.634Z,22.20
2022-08-18T13:44:53.290Z,22.20
2022-08-18T13:47:23.617Z,22.20
2022-08-18T13:49:52.583Z,22.30
2022-08-18T13:52:34.748Z,22.30
2022-08-18T13:55:08.151Z,22.30
2022-08-18T13:57:40.150Z,22.30
2022-08-18T14:00:18.490Z,22.20
2022-08-18T14:02:56.343Z,22.30
2022-08-18T14:05:36.605Z,22.40
2022-08-18T14:08:19.034Z,22.60
2022-08-18T14:10:55.472Z,22.60
2022-08-18T14:13:25.212Z,22.70
2022-08-18T14:15:56.210Z,22.60
2022-08-18T14:18:29.038Z,22.40
2022-08-18T14:21:23.242Z,22.40
2022-08-18T14:24:14.455Z,22.60
2022-08-18T14:26:50.121Z,22.60
2022-08-18T14:29:45.557Z,22.50
2022-08-18T14:32:09.308Z,22.60
2022-08-18T14:34:50.846Z,22.90
2022-08-18T14:37:20.653Z,22.90
2022-08-18T14:39:50.428Z,23.10
2022-08-18T14:42:33.080Z,22.90
2022-08-18T14:45:26.460Z,23.10
2022-08-18T14:48:00.029Z,23.10
2022-08-18T14:50:28.672Z,22.90
2022-08-18T14:52:59.150Z,23.10
2022-08-18T14:55:28.455Z,23.10
2022-08-18T14:57:59.670Z,23.20
2022-08-18T15:00:31.301Z,23.40
2022-08-18T15:03:00.159Z,23.60
2022-08-18T15:05:33.883Z,23.80
2022-08-18T15:08:06.973Z,23.90
2022-08-18T15:10:35.636Z,24.00
2022-08-18T15:13:04.659Z,24.00
2022-08-18T15:15:50.750Z,23.80
2022-08-18T15:18:22.546Z,23.80
2022-08-18T15:21:19.454Z,24.20
2022-08-18T15:24:14.954Z,24.30
2022-08-18T15:26:51.489Z,24.30
2022-08-18T15:29:22.565Z,24.60
2022-08-18T15:31:59.835Z,24.20
2022-08-18T15:34:46.385Z,24.10
2022-08-18T15:37:19.863Z,24.40
2022-08-18T15:39:56.073Z,24.60
2022-08-18T15:42:25.166Z,24.30
2022-08-18T15:44:54.169Z,24.30
2022-08-18T15:47:25.119Z,24.40
2022-08-18T15:49:54.844Z,24.80
2022-08-18T15:52:26.260Z,24.90
2022-08-18T15:54:58.317Z,24.40
2022-08-18T15:57:39.451Z,24.30
2022-08-18T16:00:12.168Z,24.60
2022-08-18T16:02:48.431Z,24.70
2022-08-18T16:05:18.031Z,24.80
2022-08-18T16:07:46.824Z,24.70
2022-08-18T16:10:17.832Z,24.60
2022-08-18T16:12:48.446Z,24.70
2022-08-18T16:15:19.542Z,25.00
2022-08-18T16:17:51.222Z,25.00
2022-08-18T16:20:20.944Z,25.20
2022-08-18T16:22:49.640Z,25.10
2022-08-18T16:25:18.797Z,25.00
2022-08-18T16:27:48.732Z,25.20
2022-08-18T16:30:20.302Z,25.30
2022-08-18T16:32:49.579Z,25.00
2022-08-18T16:35:19.572Z,25.20
2022-08-18T16:37:50.080Z,25.10
2022-08-18T16:40:20.170Z,25.10
2022-08-18T16:42:53.989Z,24.80
2022-08-18T16:45:23.012Z,25.00
2022-08-18T16:47:51.562Z,25.10
2022-08-18T16:50:20.183Z,25.20
2022-08-18T16:52:48.751Z,24.90
2022-08-18T16:55:17.109Z,25.10
2022-08-18T16:58:04.106Z,25.30
2022-08-18T17:00:54.934Z,25.30
2022-08-18T17:03:44.787Z,25.10
2022-08-18T17:06:18.828Z,25.20
2022-08-18T17:08:47.680Z,25.40
2022-08-18T17:11:19.134Z,25.40
2022-08-18T17:13:49.725Z,25.10
2022-08-18T17:16:20.472Z,25.30
2022-08-18T17:18:49.780Z,25.40
2022-08-18T17:21:26.405Z,25.50
2022-08-18T17:23:56.694Z,25.70
2022-08-18T17:26:41.253Z,25.30
2022-08-18T17:29:15.859Z,25.50
2022-08-18T17:31:58.545Z,25.60
2022-08-18T17:34:35.853Z,25.70
2022-08-18T17:37:08.714Z,25.90
2022-08-18T17:39:58.363Z,25.40
2022-08-18T17:42:27.397Z,25.30
2022-08-18T17:45:08.186Z,25.30
2022-08-18T17:47:52.893Z,25.30
2022-08-18T17:50:54.455Z,25.20
2022-08-18T17:53:23.775Z,25.30
2022-08-18T17:56:02.452Z,25.10
2022-08-18T17:59:00.929Z,25.00
2022-08-18T18:01:30.745Z,25.10
2022-08-18T18:03:59.411Z,24.90
2022-08-18T18:06:43.991Z,24.80
2022-08-18T18:09:31.132Z,25.10
2022-08-18T18:12:20.462Z,24.90
2022-08-18T18:14:48.841Z,25.00
2022-08-18T18:17:19.524Z,25.20
2022-08-18T18:19:51.514Z,25.30
2022-08-18T18:22:25.679Z,25.40
2022-08-18T18:25:08.695Z,25.40
2022-08-18T18:27:37.695Z,25.40
2022-08-18T18:30:27.770Z,25.40
2022-08-18T18:33:15.996Z,25.50
2022-08-18T18:35:54.056Z,25.60
2022-08-18T18:38:32.197Z,25.60
2022-08-18T18:41:16.020Z,25.70
2022-08-18T18:43:47.799Z,25.30
2022-08-18T18:46:32.022Z,25.10
2022-08-18T18:49:15.645Z,25.40
2022-08-18T18:52:15.987Z,25.40
2022-08-18T18:55:07.430Z,25.70
2022-08-18T18:58:08.487Z,25.90
2022-08-18T19:00:53.871Z,26.10
2022-08-18T19:03:33.767Z,26.40
2022-08-18T19:06:15.083Z,26.40
2022-08-18T19:09:14.916Z,26.70
2022-08-18T19:11:57.260Z,26.80
2022-08-18T19:14:32.653Z,26.90
2022-08-18T19:17:03.966Z,27.30
2022-08-18T19:19:42.860Z,27.50
2022-08-18T19:22:18.767Z,27.80
2022-08-18T19:25:14.091Z,28.10
2022-08-18T19:28:00.175Z,27.60
2022-08-18T19:30:30.233Z,27.90
2022-08-18T19:33:01.555Z,28.20
2022-08-18T19:35:44.461Z,27.80
2022-08-18T19:38:41.284Z,27.40
2022-08-18T19:41:21.681Z,27.50
2022-08-18T19:44:30.094Z,27.80
2022-08-18T19:47:32.282Z,28.10
2022-08-18T19:50:26.395Z,28.50
2022-08-18T19:53:16.325Z,28.60
2022-08-18T19:55:44.648Z,28.80
2022-08-18T19:58:58.597Z,28.90
2022-08-18T20:01:32.205Z,28.90
2022-08-18T20:04:32.551Z,28.30
2022-08-18T20:07:10.571Z,27.90
2022-08-18T20:09:51.159Z,28.00
2022-08-18T20:12:46.015Z,28.00
2022-08-18T20:15:24.070Z,28.10
2022-08-18T20:18:23.420Z,27.90
2022-08-18T20:21:16.571Z,28.00
2022-08-18T20:24:06.735Z,27.90
2022-08-18T20:26:40.985Z,28.30
2022-08-18T20:29:37.076Z,28.10
2022-08-18T20:32:19.010Z,28.10
2022-08-18T20:34:52.578Z,27.90
2022-08-18T20:37:27.318Z,28.20
2022-08-18T20:39:57.121Z,28.40
2022-08-18T20:42:25.540Z,27.80
2022-08-18T20:45:11.338Z,27.70
2022-08-18T20:47:46.643Z,28.10
2022-08-18T20:50:44.732Z,28.40
2022-08-18T20:53:26.751Z,27.90
2022-08-18T20:56:31.798Z,28.30
2022-08-18T20:59:09.179Z,28.00
2022-08-18T21:01:39.809Z,28.00
2022-08-18T21:04:09.033Z,27.90
2022-08-18T21:06:42.836Z,28.10
2022-08-18T21:09:18.185Z,27.80
2022-08-18T21:11:48.868Z,27.40
2022-08-18T21:14:30.021Z,27.50
2022-08-18T21:16:59.883Z,27.50
2022-08-18T21:19:30.388Z,27.20
2022-08-18T21:22:01.620Z,27.50
2022-08-18T21:24:34.915Z,27.60
2022-08-18T21:27:20.625Z,27.70
2022-08-18T21:29:50.008Z,27.70
2022-08-18T21:32:22.677Z,27.80
2022-08-18T21:34:52.123Z,28.00
2022-08-18T21:37:21.158Z,27.50
2022-08-18T21:39:56.383Z,27.70
2022-08-18T21:42:50.013Z,27.90
2022-08-18T21:45:22.787Z,28.20
2022-08-18T21:47:57.398Z,27.70
2022-08-18T21:50:31.458Z,27.90
2022-08-18T21:53:06.167Z,28.10
2022-08-18T21:55:40.974Z,28.30
2022-08-18T21:58:32.593Z,28.50
2022-08-18T22:01:11.846Z,28.30
2022-08-18T22:04:18.587Z,28.20
2022-08-18T22:06:57.909Z,28.60
2022-08-18T22:09:48.454Z,28.80
2022-08-18T22:12:45.276Z,28.90
2022-08-18T22:15:18.395Z,28.90
2022-08-18T22:17:58.910Z,28.50
2022-08-18T22:20:53.779Z,28.30
2022-08-18T22:23:48.229Z,28.20
2022-08-18T22:26:33.190Z,28.20
2022-08-18T22:29:09.195Z,28.50
2022-08-18T22:31:41.141Z,28.70
2022-08-18T22:34:17.092Z,28.70
2022-08-18T22:36:53.145Z,28.50
2022-08-18T22:39:31.665Z,28.50
2022-08-18T22:42:00.462Z,28.80
2022-08-18T22:44:29.545Z,29.00
2022-08-18T22:47:01.087Z,28.70
2022-08-18T22:49:31.261Z,28.90
2022-08-18T22:52:00.356Z,29.20
2022-08-18T22:54:28.922Z,29.50
2022-08-18T22:56:57.930Z,29.80
2022-08-18T22:59:27.039Z,29.90
2022-08-18T23:01:56.324Z,29.90
2022-08-18T23:04:26.267Z,30.00
2022-08-18T23:06:56.296Z,29.80
2022-08-18T23:09:32.251Z,29.30
2022-08-18T23:12:07.017Z,29.00
2022-08-18T23:14:36.045Z,28.90
2022-08-18T23:17:06.009Z,29.40
2022-08-18T23:19:35.566Z,29.60
2022-08-18T23:22:05.345Z,29.80
2022-08-18T23:24:33.803Z,29.90
2022-08-18T23:27:02.444Z,30.10
2022-08-18T23:29:30.939Z,30.20
2022-08-18T23:31:59.340Z,30.10
2022-08-18T23:34:28.098Z,29.90
2022-08-18T23:36:59.336Z,29.70
2022-08-18T23:39:28.566Z,29.70
2022-08-18T23:41:57.112Z,29.80
2022-08-18T23:44:28.075Z,29.90
2022-08-18T23:46:58.842Z,29.90
2022-08-18T23:49:29.554Z,29.90
2022-08-18T23:51:59.212Z,29.70
2022-08-18T23:54:34.060Z,29.90
2022-08-18T23:57:02.787Z,29.80
2022-08-18T23:59:31.437Z,29.70
